createdAt,value
2018-12-17T00:01:38.440Z,1.60
2018-12-17T00:06:17.041Z,1.60
2018-12-17T00:10:55.886Z,1.50
2018-12-17T00:15:34.732Z,1.60
2018-12-17T00:20:13.517Z,1.60
2018-12-17T00:24:52.242Z,1.60
2018-12-17T00:29:31.035Z,1.60
2018-12-17T00:34:09.829Z,1.60
2018-12-17T00:38:48.747Z,1.60
2018-12-17T00:43:27.989Z,1.70
2018-12-17T00:48:06.816Z,1.70
2018-12-17T00:52:45.685Z,1.80
2018-12-17T00:57:24.433Z,1.90
2018-12-17T01:02:03.246Z,1.80
2018-12-17T01:06:42.131Z,1.80
2018-12-17T01:11:21.214Z,1.80
2018-12-17T01:16:03.941Z,1.80
2018-12-17T01:20:42.748Z,1.80
2018-12-17T01:25:21.406Z,1.80
2018-12-17T01:30:00.240Z,1.80
2018-12-17T01:34:39.096Z,1.90
2018-12-17T01:39:17.928Z,1.90
2018-12-17T01:43:56.792Z,1.90
2018-12-17T01:48:35.432Z,1.90
2018-12-17T01:53:14.312Z,1.90
2018-12-17T01:57:52.939Z,1.90
2018-12-17T02:02:31.723Z,1.80
2018-12-17T02:07:10.574Z,1.80
2018-12-17T02:11:49.232Z,1.80
2018-12-17T02:16:27.999Z,1.80
2018-12-17T02:21:06.912Z,1.80
2018-12-17T02:25:45.484Z,1.80
2018-12-17T02:30:24.624Z,1.90
2018-12-17T02:35:04.272Z,1.90
2018-12-17T02:39:42.901Z,1.90
2018-12-17T02:44:21.812Z,1.90
2018-12-17T02:49:00.743Z,1.90
2018-12-17T02:53:39.404Z,1.90
2018-12-17T02:58:18.092Z,1.90
2018-12-17T03:02:56.951Z,1.90
2018-12-17T03:07:35.843Z,1.90
2018-12-17T03:12:14.581Z,1.90
2018-12-17T03:16:53.328Z,2.00
2018-12-17T03:21:32.159Z,2.10
2018-12-17T03:26:11.048Z,2.10
2018-12-17T03:30:49.990Z,2.10
2018-12-17T03:35:29.508Z,2.20
2018-12-17T03:40:08.432Z,2.20
2018-12-17T03:44:47.131Z,2.20
2018-12-17T03:49:25.811Z,2.20
2018-12-17T03:54:04.522Z,2.20
2018-12-17T03:58:43.444Z,2.10
2018-12-17T04:03:22.320Z,2.10
2018-12-17T04:08:01.074Z,2.10
2018-12-17T04:12:40.121Z,2.00
2018-12-17T04:17:18.856Z,2.00
2018-12-17T04:21:57.696Z,2.10
2018-12-17T04:26:36.394Z,2.00
2018-12-17T04:31:15.169Z,2.10
2018-12-17T04:35:53.770Z,2.20
2018-12-17T04:40:32.630Z,2.10
2018-12-17T04:45:11.518Z,2.20
2018-12-17T04:49:50.345Z,2.20
2018-12-17T04:54:29.482Z,2.30
2018-12-17T04:59:14.562Z,2.30
2018-12-17T05:03:49.205Z,2.30
2018-12-17T05:08:27.905Z,2.30
2018-12-17T05:13:06.516Z,2.40
2018-12-17T05:17:45.399Z,2.40
2018-12-17T05:22:24.297Z,2.50
2018-12-17T05:27:03.080Z,2.60
2018-12-17T05:31:41.794Z,2.60
2018-12-17T05:36:20.576Z,2.60
2018-12-17T05:40:59.295Z,2.60
2018-12-17T05:45:38.228Z,2.60
2018-12-17T05:50:17.044Z,2.60
2018-12-17T05:54:55.931Z,2.60
2018-12-17T05:59:34.767Z,2.70
2018-12-17T06:04:13.459Z,2.70
2018-12-17T06:08:52.301Z,2.80
2018-12-17T06:13:31.024Z,2.90
2018-12-17T06:18:09.702Z,2.90
2018-12-17T06:22:48.731Z,3.00
2018-12-17T06:27:27.415Z,3.00
2018-12-17T06:32:06.307Z,3.00
2018-12-17T06:36:45.035Z,3.00
2018-12-17T06:41:23.677Z,3.00
2018-12-17T06:46:02.530Z,3.00
2018-12-17T06:50:41.228Z,2.90
2018-12-17T06:55:19.978Z,2.90
2018-12-17T06:59:58.668Z,2.90
2018-12-17T07:04:37.460Z,2.90
2018-12-17T07:09:16.277Z,2.90
2018-12-17T07:13:55.132Z,3.10
2018-12-17T07:18:34.777Z,3.10
2018-12-17T07:23:13.454Z,3.20
2018-12-17T07:27:52.317Z,3.20
2018-12-17T07:32:31.063Z,3.20
2018-12-17T07:37:11.291Z,3.20
2018-12-17T07:41:50.236Z,3.10
2018-12-17T07:46:28.993Z,3.10
2018-12-17T07:51:07.912Z,3.10
2018-12-17T07:55:46.769Z,3.10
2018-12-17T08:00:26.108Z,3.20
2018-12-17T08:05:05.013Z,3.30
2018-12-17T08:09:43.888Z,3.30
2018-12-17T08:14:22.692Z,3.20
2018-12-17T08:19:01.611Z,3.30
2018-12-17T08:23:40.541Z,3.30
2018-12-17T08:28:19.339Z,3.40
2018-12-17T08:32:58.049Z,3.40
2018-12-17T08:37:36.656Z,3.50
2018-12-17T08:42:15.316Z,3.60
2018-12-17T08:46:53.920Z,3.60
2018-12-17T08:51:32.811Z,3.60
2018-12-17T08:56:11.524Z,3.60
2018-12-17T09:00:50.373Z,3.60
2018-12-17T09:05:29.195Z,3.70
2018-12-17T09:10:07.921Z,3.80
2018-12-17T09:14:46.679Z,3.80
2018-12-17T09:19:25.585Z,3.80
2018-12-17T09:24:04.376Z,3.90
2018-12-17T09:28:43.211Z,4.10
2018-12-17T09:33:22.054Z,4.00
2018-12-17T09:38:00.779Z,4.00
2018-12-17T09:42:39.503Z,3.90
2018-12-17T09:47:18.135Z,3.90
2018-12-17T09:51:56.745Z,3.90
2018-12-17T09:56:35.655Z,4.10
2018-12-17T10:01:14.414Z,4.30
2018-12-17T10:05:53.216Z,4.50
2018-12-17T10:10:31.987Z,4.60
2018-12-17T10:15:10.776Z,4.80
2018-12-17T10:19:49.503Z,5.30
2018-12-17T10:24:28.380Z,5.70
2018-12-17T10:29:07.229Z,5.80
2018-12-17T10:33:45.847Z,5.80
2018-12-17T10:38:24.752Z,5.90
2018-12-17T10:43:03.518Z,6.20
2018-12-17T10:47:42.184Z,6.20
2018-12-17T10:52:20.983Z,6.30
2018-12-17T10:56:59.931Z,6.60
2018-12-17T11:01:44.473Z,6.70
2018-12-17T11:06:23.387Z,6.60
2018-12-17T11:11:02.316Z,6.50
2018-12-17T11:15:41.117Z,6.40
2018-12-17T11:20:19.992Z,6.50
2018-12-17T11:24:59.199Z,6.60
2018-12-17T11:29:38.014Z,6.60
2018-12-17T11:34:16.943Z,6.60
2018-12-17T11:38:55.667Z,6.60
2018-12-17T11:43:34.445Z,6.70
2018-12-17T11:48:13.236Z,6.70
2018-12-17T11:52:52.195Z,6.70
2018-12-17T11:57:34.966Z,6.60
2018-12-17T12:02:13.556Z,6.60
2018-12-17T12:06:52.396Z,6.60
2018-12-17T12:11:31.349Z,6.70
2018-12-17T12:16:10.235Z,6.90
2018-12-17T12:20:48.959Z,7.10
2018-12-17T12:25:27.684Z,7.30
2018-12-17T12:30:08.957Z,7.70
2018-12-17T12:34:47.588Z,8.00
2018-12-17T12:39:26.578Z,8.20
2018-12-17T12:44:08.819Z,8.20
2018-12-17T12:48:46.161Z,8.20
2018-12-17T12:53:24.938Z,8.10
2018-12-17T12:58:04.052Z,8.10
2018-12-17T13:02:42.946Z,7.90
2018-12-17T13:07:21.749Z,7.80
2018-12-17T13:12:00.621Z,7.60
2018-12-17T13:16:39.416Z,7.40
2018-12-17T13:21:18.153Z,7.40
2018-12-17T13:25:57.445Z,7.40
2018-12-17T13:30:36.208Z,7.40
2018-12-17T13:35:15.043Z,7.40
2018-12-17T13:39:54.137Z,7.50
2018-12-17T13:44:32.978Z,7.60
2018-12-17T13:49:11.713Z,7.60
2018-12-17T13:53:50.539Z,7.60
2018-12-17T13:58:29.394Z,7.40
2018-12-17T14:03:08.076Z,7.40
2018-12-17T14:07:47.146Z,7.30
2018-12-17T14:12:26.093Z,7.20
2018-12-17T14:22:15.461Z,7.10
2018-12-17T14:26:54.393Z,7.00
2018-12-17T14:31:35.062Z,7.00
2018-12-17T14:36:13.865Z,7.00
2018-12-17T14:40:53.458Z,6.90
2018-12-17T14:45:32.483Z,6.90
2018-12-17T14:50:11.165Z,6.90
2018-12-17T14:54:50.163Z,6.90
2018-12-17T14:59:29.058Z,6.80
2018-12-17T15:04:07.789Z,6.80
2018-12-17T15:08:46.562Z,6.80
2018-12-17T15:13:25.404Z,6.80
2018-12-17T15:18:04.045Z,6.80
2018-12-17T15:22:42.729Z,6.70
2018-12-17T15:27:21.414Z,6.70
2018-12-17T15:32:00.155Z,6.70
2018-12-17T15:36:40.617Z,6.60
2018-12-17T15:41:19.992Z,6.60
2018-12-17T15:45:58.821Z,6.60
2018-12-17T15:50:37.753Z,6.60
2018-12-17T15:55:16.468Z,6.60
2018-12-17T15:59:55.242Z,6.60
2018-12-17T16:04:34.074Z,6.60
2018-12-17T16:09:12.756Z,6.60
2018-12-17T16:13:51.568Z,6.50
2018-12-17T16:18:30.262Z,6.50
2018-12-17T16:23:09.108Z,6.50
2018-12-17T16:27:47.999Z,6.40
2018-12-17T16:32:26.801Z,6.40
2018-12-17T16:37:05.736Z,6.40
2018-12-17T16:41:44.365Z,6.40
2018-12-17T16:46:23.320Z,6.40
2018-12-17T16:51:02.059Z,6.50
2018-12-17T16:55:40.932Z,6.50
2018-12-17T17:00:19.725Z,6.50
2018-12-17T17:04:58.431Z,6.40
2018-12-17T17:09:37.269Z,6.50
2018-12-17T17:14:16.096Z,6.50
2018-12-17T17:18:54.955Z,6.50
2018-12-17T17:23:33.697Z,6.50
2018-12-17T17:28:12.438Z,6.40
2018-12-17T17:32:51.280Z,6.40
2018-12-17T17:37:30.047Z,6.40
2018-12-17T17:42:08.931Z,6.40
2018-12-17T17:46:47.542Z,6.40
2018-12-17T17:51:26.332Z,6.40
2018-12-17T17:56:06.477Z,6.40
2018-12-17T18:00:45.323Z,6.40
2018-12-17T18:05:24.180Z,6.40
2018-12-17T18:10:06.574Z,6.40
2018-12-17T18:14:45.954Z,6.30
2018-12-17T18:19:24.596Z,6.30
2018-12-17T18:24:03.740Z,6.30
2018-12-17T18:28:42.312Z,6.20
2018-12-17T18:33:21.377Z,6.20
2018-12-17T18:38:00.238Z,6.10
2018-12-17T18:42:39.098Z,6.20
2018-12-17T18:47:17.924Z,6.10
2018-12-17T18:51:56.690Z,6.10
2018-12-17T18:56:35.468Z,6.10
2018-12-17T19:01:14.348Z,6.10
2018-12-17T19:05:53.132Z,6.00
2018-12-17T19:10:33.824Z,6.00
2018-12-17T19:15:12.398Z,6.00
2018-12-17T19:19:51.124Z,6.00
2018-12-17T19:24:29.912Z,5.90
2018-12-17T19:29:08.741Z,5.90
2018-12-17T19:33:47.389Z,5.80
2018-12-17T19:38:26.212Z,5.70
2018-12-17T19:43:04.975Z,5.60
2018-12-17T19:47:43.732Z,5.50
2018-12-17T19:52:22.465Z,5.40
2018-12-17T19:57:01.284Z,5.40
2018-12-17T20:01:40.097Z,5.30
2018-12-17T20:06:18.880Z,5.30
2018-12-17T20:10:57.508Z,5.20
2018-12-17T20:15:36.263Z,5.10
2018-12-17T20:20:15.035Z,5.10
2018-12-17T20:24:53.736Z,5.20
2018-12-17T20:29:32.576Z,5.20
2018-12-17T20:34:11.831Z,5.30
2018-12-17T20:38:50.761Z,5.30
2018-12-17T20:43:29.383Z,5.30
2018-12-17T20:48:08.260Z,5.20
2018-12-17T20:52:47.033Z,5.30
2018-12-17T20:57:25.812Z,5.30
2018-12-17T21:02:04.688Z,5.30
2018-12-17T21:06:49.719Z,5.20
2018-12-17T21:11:24.543Z,5.20
2018-12-17T21:16:03.368Z,5.20
2018-12-17T21:20:42.037Z,5.20
2018-12-17T21:25:20.855Z,5.20
2018-12-17T21:29:59.769Z,5.10
2018-12-17T21:34:38.676Z,5.10
2018-12-17T21:39:17.589Z,5.10
2018-12-17T21:43:56.280Z,5.20
2018-12-17T21:48:35.279Z,5.20
2018-12-17T21:53:14.428Z,5.20
2018-12-17T21:57:53.175Z,5.20
2018-12-17T22:02:31.968Z,5.30
2018-12-17T22:07:10.691Z,5.30
2018-12-17T22:11:49.787Z,5.30
2018-12-17T22:16:28.742Z,5.30
2018-12-17T22:21:07.781Z,5.40
2018-12-17T22:25:46.529Z,5.40
2018-12-17T22:30:25.288Z,5.30
2018-12-17T22:35:04.996Z,5.30
2018-12-17T22:39:43.748Z,5.30
2018-12-17T22:44:22.721Z,5.30
2018-12-17T22:49:01.344Z,5.30
2018-12-17T22:53:40.217Z,5.30
2018-12-17T22:58:19.030Z,5.30
2018-12-17T23:02:57.914Z,5.30
2018-12-17T23:07:36.857Z,5.40
2018-12-17T23:12:27.774Z,5.40
2018-12-17T23:17:18.712Z,5.40
2018-12-17T23:21:57.737Z,5.40
2018-12-17T23:26:36.552Z,5.40
2018-12-17T23:31:15.263Z,5.40
2018-12-17T23:35:53.980Z,5.40
2018-12-17T23:40:32.759Z,5.50
2018-12-17T23:45:11.564Z,5.50
2018-12-17T23:49:50.231Z,5.50
2018-12-17T23:54:28.931Z,5.50
2018-12-17T23:59:08.284Z,5.50
